createdAt,value
2024-05-09T00:00:29.626Z,97.30
2024-05-09T00:03:21.846Z,97.26
2024-05-09T00:05:54.652Z,98.00
2024-05-09T00:08:28.432Z,97.76
2024-05-09T00:10:58.345Z,97.95
2024-05-09T00:13:30.700Z,98.01
2024-05-09T00:16:00.945Z,97.68
2024-05-09T00:18:33.486Z,97.03
2024-05-09T00:21:07.956Z,96.81
2024-05-09T00:23:39.803Z,97.00
2024-05-09T00:26:18.053Z,96.70
2024-05-09T00:28:48.840Z,96.50
2024-05-09T00:31:19.182Z,96.22
2024-05-09T00:33:55.917Z,96.25
2024-05-09T00:36:26.342Z,96.78
2024-05-09T00:38:59.531Z,96.25
2024-05-09T00:41:32.497Z,95.67
2024-05-09T00:50:51.691Z,95.58
2024-05-09T00:53:59.653Z,95.66
2024-05-09T00:56:52.847Z,95.43
2024-05-09T00:59:57.360Z,94.92
2024-05-09T01:06:55.419Z,94.72
2024-05-09T01:13:27.200Z,96.93
2024-05-09T01:17:19.219Z,97.54
2024-05-09T01:19:42.691Z,97.36
2024-05-09T01:26:15.151Z,97.14
2024-05-09T01:28:54.949Z,97.39
2024-05-09T01:31:33.015Z,97.93
2024-05-09T01:34:18.319Z,98.79
2024-05-09T01:37:11.762Z,99.36
2024-05-09T01:39:50.125Z,99.95
2024-05-09T01:42:27.698Z,100.00
2024-05-09T01:45:09.188Z,100.00
2024-05-09T01:47:56.360Z,100.00
2024-05-09T01:50:40.497Z,100.00
2024-05-09T01:53:26.116Z,100.00
2024-05-09T01:56:20.198Z,100.00
2024-05-09T01:59:27.663Z,100.00
2024-05-09T02:05:36.303Z,100.00
2024-05-09T02:08:50.013Z,100.00
2024-05-09T02:11:25.197Z,100.00
2024-05-09T02:14:24.650Z,100.00
2024-05-09T02:16:59.804Z,100.00
2024-05-09T02:19:50.861Z,100.00
2024-05-09T02:22:21.631Z,100.00
2024-05-09T02:24:55.658Z,100.00
2024-05-09T02:27:31.725Z,100.00
2024-05-09T02:30:18.722Z,100.00
2024-05-09T02:32:56.951Z,100.00
2024-05-09T02:35:34.598Z,100.00
2024-05-09T02:39:28.725Z,100.00
2024-05-09T02:43:02.231Z,100.00
2024-05-09T02:45:31.681Z,100.00
2024-05-09T03:00:38.385Z,100.00
2024-05-09T03:08:00.737Z,100.00
2024-05-09T03:12:53.991Z,99.98
2024-05-09T03:31:39.421Z,95.75
2024-05-09T03:35:22.616Z,96.42
2024-05-09T03:38:59.450Z,97.66
2024-05-09T03:42:10.808Z,98.61
2024-05-09T03:46:01.429Z,99.44
2024-05-09T03:49:38.666Z,99.57
2024-05-09T03:52:37.442Z,100.00
2024-05-09T03:55:58.461Z,99.99
2024-05-09T03:59:00.597Z,99.96
2024-05-09T04:02:29.711Z,100.00
2024-05-09T04:06:16.996Z,100.00
2024-05-09T04:10:11.269Z,100.00
2024-05-09T04:14:18.806Z,100.00
2024-05-09T04:17:49.485Z,100.00
2024-05-09T04:21:19.400Z,100.00
2024-05-09T04:24:49.939Z,100.00
2024-05-09T04:28:24.022Z,100.00
2024-05-09T04:31:54.804Z,100.00
2024-05-09T04:35:39.423Z,100.00
2024-05-09T05:01:22.192Z,100.00
2024-05-09T05:04:43.169Z,100.00
2024-05-09T05:23:20.430Z,100.00
2024-05-09T05:30:24.953Z,100.00
2024-05-09T05:34:06.921Z,100.00
2024-05-09T05:38:01.962Z,100.00
2024-05-09T05:41:55.030Z,100.00
2024-05-09T05:45:09.887Z,100.00
2024-05-09T06:10:50.117Z,100.00
2024-05-09T06:14:32.836Z,99.60
2024-05-09T06:30:29.526Z,99.90
2024-05-09T06:34:29.879Z,100.00
2024-05-09T06:38:22.610Z,100.00
2024-05-09T06:42:04.317Z,100.00
2024-05-09T06:49:19.510Z,100.00
2024-05-09T06:51:56.629Z,100.00
2024-05-09T06:55:30.274Z,100.00
2024-05-09T06:59:15.542Z,100.00
2024-05-09T07:03:08.464Z,100.00
2024-05-09T07:06:52.770Z,100.00
2024-05-09T07:46:48.225Z,100.00
2024-05-09T07:52:01.192Z,99.13
2024-05-09T07:53:59.870Z,99.77
2024-05-09T08:08:11.124Z,100.00
2024-05-09T08:10:58.488Z,99.97
2024-05-09T08:13:47.202Z,99.89
2024-05-09T08:16:46.911Z,99.79
2024-05-09T08:19:23.755Z,99.98
2024-05-09T08:22:18.498Z,99.93
2024-05-09T08:24:55.488Z,99.94
2024-05-09T08:27:46.880Z,99.97
2024-05-09T08:30:47.328Z,100.00
2024-05-09T08:34:23.651Z,99.98
2024-05-09T08:44:24.369Z,98.99
2024-05-09T08:47:10.066Z,98.79
2024-05-09T08:49:54.494Z,98.44
2024-05-09T08:52:53.294Z,98.86
2024-05-09T08:55:31.718Z,98.65
2024-05-09T08:58:30.812Z,98.16
2024-05-09T09:01:26.126Z,98.75
2024-05-09T09:04:20.273Z,97.85
2024-05-09T09:07:26.451Z,97.63
2024-05-09T09:10:08.747Z,97.27
2024-05-09T09:13:01.710Z,96.35
2024-05-09T09:16:13.195Z,96.06
2024-05-09T09:19:06.087Z,96.40
2024-05-09T09:21:42.970Z,96.62
2024-05-09T09:24:34.346Z,96.75
2024-05-09T09:27:31.642Z,96.94
2024-05-09T09:30:26.892Z,96.87
2024-05-09T09:33:42.376Z,97.09
2024-05-09T09:36:19.188Z,97.68
2024-05-09T09:38:53.623Z,98.59
2024-05-09T09:41:49.374Z,98.22
2024-05-09T09:44:30.802Z,98.93
2024-05-09T09:47:29.460Z,98.63
2024-05-09T09:50:27.990Z,97.55
2024-05-09T09:53:35.038Z,97.29
2024-05-09T09:56:30.367Z,97.09
2024-05-09T09:59:39.981Z,96.98
2024-05-09T10:02:39.680Z,96.65
2024-05-09T10:05:24.980Z,95.51
2024-05-09T10:07:59.446Z,95.23
2024-05-09T10:14:54.208Z,96.95
2024-05-09T10:17:53.950Z,97.13
2024-05-09T10:20:55.175Z,97.85
2024-05-09T10:23:49.598Z,98.00
2024-05-09T10:26:50.426Z,97.90
2024-05-09T10:29:28.767Z,98.41
2024-05-09T10:32:23.225Z,98.95
2024-05-09T10:35:35.866Z,99.56
2024-05-09T10:38:46.372Z,99.58
2024-05-09T10:41:57.263Z,99.55
2024-05-09T10:44:53.803Z,99.26
2024-05-09T10:47:51.665Z,99.82
2024-05-09T10:51:05.171Z,99.91
2024-05-09T10:54:20.957Z,99.85
2024-05-09T10:57:20.897Z,99.97
2024-05-09T10:59:56.973Z,100.00
2024-05-09T11:02:35.754Z,100.00
2024-05-09T11:05:27.995Z,100.00
2024-05-09T11:08:14.148Z,99.79
2024-05-09T11:11:14.585Z,100.00
2024-05-09T11:14:03.285Z,100.00
2024-05-09T11:16:40.914Z,100.00
2024-05-09T11:19:38.777Z,100.00
2024-05-09T11:22:36.059Z,99.97
2024-05-09T11:25:07.045Z,100.00
2024-05-09T11:27:49.480Z,100.00
2024-05-09T11:30:50.938Z,100.00
2024-05-09T11:33:23.692Z,100.00
2024-05-09T11:44:39.876Z,100.00
2024-05-09T11:48:32.022Z,100.00
2024-05-09T11:55:32.395Z,100.00
2024-05-09T11:58:01.102Z,100.00
2024-05-09T12:01:45.549Z,100.00
2024-05-09T12:05:27.690Z,100.00
2024-05-09T12:07:57.713Z,100.00
2024-05-09T12:10:34.299Z,100.00
2024-05-09T12:16:41.719Z,100.00
2024-05-09T12:19:25.695Z,100.00
2024-05-09T12:22:00.753Z,100.00
2024-05-09T12:24:47.658Z,100.00
2024-05-09T12:27:55.819Z,100.00
2024-05-09T12:30:38.868Z,100.00
2024-05-09T12:33:22.727Z,100.00
2024-05-09T12:36:26.241Z,100.00
2024-05-09T12:39:01.114Z,100.00
2024-05-09T12:45:26.694Z,100.00
2024-05-09T12:48:13.329Z,100.00
2024-05-09T12:50:51.785Z,100.00
2024-05-09T12:56:47.175Z,100.00
2024-05-09T13:03:36.982Z,100.00
2024-05-09T13:21:49.779Z,100.00
2024-05-09T13:24:49.030Z,100.00
2024-05-09T13:27:27.010Z,100.00
2024-05-09T13:30:29.412Z,100.00
2024-05-09T13:33:15.017Z,100.00
2024-05-09T13:36:05.657Z,100.00
2024-05-09T13:39:00.953Z,100.00
2024-05-09T13:41:53.667Z,100.00
2024-05-09T13:57:39.739Z,100.00
2024-05-09T14:00:49.048Z,100.00
2024-05-09T14:03:52.315Z,100.00
2024-05-09T14:07:11.639Z,99.99
2024-05-09T14:11:03.348Z,100.00
2024-05-09T14:14:25.758Z,99.98
2024-05-09T14:17:46.858Z,100.00
2024-05-09T14:21:13.118Z,100.00
2024-05-09T14:24:39.697Z,100.00
2024-05-09T15:18:46.469Z,88.31
2024-05-09T15:21:17.561Z,88.12
2024-05-09T15:23:48.259Z,88.92
2024-05-09T15:26:19.805Z,87.83
2024-05-09T15:28:49.958Z,88.14
2024-05-09T15:31:36.154Z,88.40
2024-05-09T15:34:06.528Z,88.13
2024-05-09T15:36:43.203Z,87.63
2024-05-09T15:39:26.415Z,87.96
2024-05-09T15:42:35.559Z,87.63
2024-05-09T15:45:41.759Z,87.00
2024-05-09T15:48:30.919Z,86.39
2024-05-09T15:51:26.303Z,87.45
2024-05-09T15:54:14.375Z,87.43
2024-05-09T15:56:52.475Z,87.76
2024-05-09T16:00:05.908Z,87.30
2024-05-09T16:02:58.505Z,86.97
2024-05-09T16:06:00.335Z,87.92
2024-05-09T16:08:44.628Z,87.80
2024-05-09T16:11:55.137Z,87.33
2024-05-09T16:14:52.881Z,87.71
2024-05-09T16:18:19.952Z,87.09
2024-05-09T16:21:35.134Z,86.58
2024-05-09T16:24:34.155Z,87.23
2024-05-09T16:27:12.796Z,87.89
2024-05-09T16:30:04.189Z,87.95
2024-05-09T16:33:05.350Z,87.95
2024-05-09T16:36:08.400Z,87.42
2024-05-09T16:38:53.679Z,88.06
2024-05-09T16:41:24.408Z,87.82
2024-05-09T16:44:04.382Z,87.53
2024-05-09T16:46:50.163Z,88.02
2024-05-09T16:49:56.639Z,87.64
2024-05-09T16:53:17.486Z,87.63
2024-05-09T16:56:25.112Z,88.06
2024-05-09T16:59:54.058Z,88.27
2024-05-09T17:03:14.508Z,88.53
2024-05-09T17:06:17.890Z,89.11
2024-05-09T17:09:51.919Z,88.70
2024-05-09T17:13:08.055Z,87.41
2024-05-09T17:16:08.568Z,87.04
2024-05-09T17:19:09.748Z,87.32
2024-05-09T17:22:21.017Z,87.16
2024-05-09T17:25:14.638Z,88.12
2024-05-09T17:28:08.740Z,88.10
2024-05-09T17:31:26.631Z,87.87
2024-05-09T17:34:42.222Z,87.78
2024-05-09T17:38:03.336Z,87.49
2024-05-09T17:41:09.047Z,87.36
2024-05-09T17:44:31.429Z,87.66
2024-05-09T17:47:52.043Z,87.92
2024-05-09T17:51:15.318Z,87.24
2024-05-09T17:54:58.339Z,87.42
2024-05-09T17:58:02.121Z,87.83
2024-05-09T18:01:18.031Z,87.91
2024-05-09T18:05:00.514Z,88.53
2024-05-09T18:08:58.649Z,88.86
2024-05-09T18:11:52.894Z,88.28
2024-05-09T18:14:32.375Z,88.05
2024-05-09T18:17:23.573Z,87.86
2024-05-09T18:20:24.179Z,87.70
2024-05-09T18:23:35.395Z,87.60
2024-05-09T18:26:18.794Z,87.43
2024-05-09T18:29:01.694Z,86.98
2024-05-09T18:31:40.550Z,86.85
2024-05-09T18:34:39.240Z,85.78
2024-05-09T18:37:42.301Z,85.21
2024-05-09T18:40:39.458Z,85.34
2024-05-09T18:43:14.879Z,84.83
2024-05-09T18:46:03.388Z,84.57
2024-05-09T18:49:24.076Z,84.03
2024-05-09T18:52:25.979Z,84.57
2024-05-09T18:55:51.169Z,84.02
2024-05-09T18:58:41.194Z,84.35
2024-05-09T19:01:30.265Z,84.36
2024-05-09T19:04:24.123Z,84.21
2024-05-09T19:07:10.777Z,84.20
2024-05-09T19:10:37.696Z,84.06
2024-05-09T19:14:08.770Z,83.61
2024-05-09T19:16:55.502Z,83.30
2024-05-09T19:20:05.782Z,83.06
2024-05-09T19:23:02.151Z,82.95
2024-05-09T19:25:43.991Z,83.09
2024-05-09T19:28:43.807Z,83.12
2024-05-09T19:31:30.361Z,83.09
2024-05-09T19:34:27.808Z,83.03
2024-05-09T19:37:58.283Z,83.73
2024-05-09T19:41:10.421Z,83.52
2024-05-09T19:44:09.223Z,83.00
2024-05-09T19:47:33.189Z,83.04
2024-05-09T19:50:32.521Z,83.01
2024-05-09T19:53:55.427Z,82.85
2024-05-09T19:56:51.139Z,82.69
2024-05-09T19:59:30.155Z,82.64
2024-05-09T20:02:33.039Z,82.72
2024-05-09T20:05:41.819Z,82.50
2024-05-09T20:08:20.462Z,82.97
2024-05-09T20:11:21.779Z,81.93
2024-05-09T20:14:43.214Z,81.76
2024-05-09T20:17:26.086Z,81.80
2024-05-09T20:20:11.323Z,82.28
2024-05-09T20:22:59.160Z,81.94
2024-05-09T20:25:47.127Z,81.05
2024-05-09T20:28:53.227Z,81.36
2024-05-09T20:32:03.259Z,81.84
2024-05-09T20:35:00.004Z,81.95
2024-05-09T20:38:17.847Z,81.85
2024-05-09T20:41:28.303Z,81.95
2024-05-09T20:44:31.909Z,81.76
2024-05-09T20:47:23.662Z,81.48
2024-05-09T20:50:43.349Z,81.83
2024-05-09T20:54:08.656Z,81.27
2024-05-09T20:57:00.374Z,81.20
2024-05-09T21:00:35.483Z,81.74
2024-05-09T21:04:05.635Z,82.71
2024-05-09T21:06:38.236Z,82.54
2024-05-09T21:09:29.449Z,82.74
2024-05-09T21:12:26.086Z,82.85
2024-05-09T21:14:59.430Z,83.32
2024-05-09T21:17:50.875Z,83.30
2024-05-09T21:20:37.862Z,83.67
2024-05-09T21:23:20.051Z,83.93
2024-05-09T21:25:59.921Z,84.06
2024-05-09T21:28:39.981Z,84.58
2024-05-09T21:31:52.879Z,84.90
2024-05-09T21:34:32.354Z,84.89
2024-05-09T21:37:26.536Z,85.17
2024-05-09T21:40:14.004Z,85.39
2024-05-09T21:43:15.053Z,85.21
2024-05-09T21:45:48.973Z,85.46
2024-05-09T21:49:22.221Z,85.55
2024-05-09T21:52:02.760Z,85.95
2024-05-09T21:55:02.228Z,86.01
2024-05-09T21:58:16.117Z,85.58
2024-05-09T22:00:59.167Z,85.42
2024-05-09T22:04:25.606Z,85.72
2024-05-09T22:07:42.437Z,86.25
2024-05-09T22:10:50.616Z,86.96
2024-05-09T22:14:02.156Z,87.58
2024-05-09T22:16:54.025Z,87.47
2024-05-09T22:19:45.054Z,87.43
2024-05-09T22:22:25.442Z,87.57
2024-05-09T22:25:23.927Z,87.43
2024-05-09T22:28:29.483Z,88.00
2024-05-09T22:30:59.603Z,88.01
2024-05-09T22:33:44.782Z,88.40
2024-05-09T22:36:30.220Z,88.42
2024-05-09T22:39:26.119Z,88.39
2024-05-09T22:42:28.826Z,88.58
2024-05-09T22:45:03.145Z,88.59
2024-05-09T22:47:44.377Z,88.20
2024-05-09T22:51:27.399Z,88.55
2024-05-09T22:54:04.842Z,88.86
2024-05-09T22:56:51.336Z,88.86
2024-05-09T22:59:39.169Z,88.79
2024-05-09T23:02:33.043Z,88.92
2024-05-09T23:05:13.758Z,88.82
2024-05-09T23:08:04.360Z,88.96
2024-05-09T23:11:23.712Z,88.57
2024-05-09T23:14:20.713Z,88.65
2024-05-09T23:17:36.348Z,88.86
2024-05-09T23:20:37.323Z,89.10
2024-05-09T23:23:57.525Z,89.26
2024-05-09T23:26:53.652Z,89.64
2024-05-09T23:29:48.806Z,89.61
2024-05-09T23:33:40.286Z,89.42
2024-05-09T23:36:38.539Z,89.75
2024-05-09T23:39:59.131Z,89.66
2024-05-09T23:43:44.126Z,89.73
2024-05-09T23:46:55.852Z,89.51
